sensor_id;sensor_type;location;lat;lon;timestamp;P1;durP1;ratioP1;P2;durP2;ratioP2
41101;SDS011;26845;50.190;19.178;2022-08-14T08:31:56;12.88;;;9.48;;
41101;SDS011;26845;50.190;19.178;2022-08-14T08:34:23;14.15;;;11.25;;
41101;SDS011;26845;50.190;19.178;2022-08-14T08:36:49;12.90;;;11.08;;
41101;SDS011;26845;50.190;19.178;2022-08-14T08:39:15;12.98;;;11.30;;
41101;SDS011;26845;50.190;19.178;2022-08-14T08:41:45;12.55;;;10.93;;
41101;SDS011;26845;50.190;19.178;2022-08-14T08:44:12;12.70;;;9.78;;
41101;SDS011;26845;50.190;19.178;2022-08-14T08:46:39;12.63;;;10.48;;
41101;SDS011;26845;50.190;19.178;2022-08-14T08:49:09;14.55;;;11.28;;
41101;SDS011;26845;50.190;19.178;2022-08-14T08:51:37;13.10;;;11.18;;
41101;SDS011;26845;50.190;19.178;2022-08-14T08:59:21;14.70;;;9.50;;
41101;SDS011;26845;50.190;19.178;2022-08-14T09:01:58;10.18;;;9.10;;
41101;SDS011;26845;50.190;19.178;2022-08-14T09:04:29;11.48;;;9.18;;
41101;SDS011;26845;50.190;19.178;2022-08-14T09:07:02;10.53;;;8.35;;
41101;SDS011;26845;50.190;19.178;2022-08-14T09:09:30;9.48;;;8.25;;
41101;SDS011;26845;50.190;19.178;2022-08-14T09:11:58;8.35;;;7.50;;
41101;SDS011;26845;50.190;19.178;2022-08-14T09:14:27;7.97;;;7.10;;
41101;SDS011;26845;50.190;19.178;2022-08-14T09:16:58;7.30;;;6.60;;
41101;SDS011;26845;50.190;19.178;2022-08-14T09:19:25;7.72;;;6.95;;
41101;SDS011;26845;50.190;19.178;2022-08-14T09:21:52;7.15;;;6.45;;
41101;SDS011;26845;50.190;19.178;2022-08-14T09:24:19;7.85;;;7.05;;
41101;SDS011;26845;50.190;19.178;2022-08-14T09:26:46;7.20;;;6.50;;
41101;SDS011;26845;50.190;19.178;2022-08-14T09:29:12;6.72;;;5.50;;
41101;SDS011;26845;50.190;19.178;2022-08-14T09:31:45;5.67;;;5.17;;
41101;SDS011;26845;50.190;19.178;2022-08-14T09:37:42;4.35;;;4.00;;
41101;SDS011;26845;50.190;19.178;2022-08-14T09:45:58;3.60;;;3.30;;
41101;SDS011;26845;50.190;19.178;2022-08-14T09:48:25;4.00;;;2.95;;
41101;SDS011;26845;50.190;19.178;2022-08-14T09:50:55;3.58;;;2.98;;
41101;SDS011;26845;50.190;19.178;2022-08-14T09:53:33;3.10;;;2.47;;
41101;SDS011;26845;50.190;19.178;2022-08-14T09:56:01;3.40;;;2.92;;
41101;SDS011;26845;50.190;19.178;2022-08-14T10:01:17;3.22;;;2.92;;
41101;SDS011;26845;50.190;19.178;2022-08-14T10:03:52;3.72;;;2.65;;
41101;SDS011;26845;50.190;19.178;2022-08-14T10:06:21;2.80;;;2.37;;
41101;SDS011;26845;50.190;19.178;2022-08-14T10:13:53;2.58;;;2.37;;
41101;SDS011;26845;50.190;19.178;2022-08-14T10:16:27;2.67;;;2.47;;
41101;SDS011;26845;50.190;19.178;2022-08-14T10:19:02;3.42;;;2.55;;
41101;SDS011;26845;50.190;19.178;2022-08-14T10:21:34;3.67;;;2.83;;
41101;SDS011;26845;50.190;19.178;2022-08-14T10:24:02;2.87;;;2.67;;
41101;SDS011;26845;50.190;19.178;2022-08-14T10:29:04;3.33;;;3.05;;
41101;SDS011;26845;50.190;19.178;2022-08-14T10:31:32;4.87;;;2.80;;
41101;SDS011;26845;50.190;19.178;2022-08-14T10:36:32;3.10;;;2.80;;
41101;SDS011;26845;50.190;19.178;2022-08-14T10:39:05;2.72;;;2.52;;
41101;SDS011;26845;50.190;19.178;2022-08-14T10:41:47;3.00;;;2.80;;
41101;SDS011;26845;50.190;19.178;2022-08-14T10:44:21;3.50;;;3.20;;
41101;SDS011;26845;50.190;19.178;2022-08-14T10:46:52;3.58;;;2.92;;
41101;SDS011;26845;50.190;19.178;2022-08-14T10:49:22;4.00;;;3.50;;
41101;SDS011;26845;50.190;19.178;2022-08-14T10:51:59;3.67;;;3.37;;
41101;SDS011;26845;50.190;19.178;2022-08-14T10:57:19;3.45;;;3.15;;
41101;SDS011;26845;50.190;19.178;2022-08-14T10:59:54;3.72;;;3.42;;
41101;SDS011;26845;50.190;19.178;2022-08-14T11:05:10;4.20;;;3.80;;
41101;SDS011;26845;50.190;19.178;2022-08-14T11:10:36;5.30;;;4.80;;
41101;SDS011;26845;50.190;19.178;2022-08-14T11:13:15;5.08;;;4.62;;
41101;SDS011;26845;50.190;19.178;2022-08-14T11:15:47;4.12;;;3.80;;
41101;SDS011;26845;50.190;19.178;2022-08-14T11:18:19;5.00;;;4.60;;
41101;SDS011;26845;50.190;19.178;2022-08-14T11:20:54;5.45;;;5.05;;
41101;SDS011;26845;50.190;19.178;2022-08-14T11:23:19;5.17;;;4.70;;
41101;SDS011;26845;50.190;19.178;2022-08-14T11:25:52;5.00;;;4.60;;
41101;SDS011;26845;50.190;19.178;2022-08-14T11:28:21;5.08;;;4.58;;
41101;SDS011;26845;50.190;19.178;2022-08-14T11:30:50;5.62;;;4.95;;
41101;SDS011;26845;50.190;19.178;2022-08-14T11:33:25;4.67;;;4.22;;
41101;SDS011;26845;50.190;19.178;2022-08-14T11:36:00;5.10;;;4.60;;
41101;SDS011;26845;50.190;19.178;2022-08-14T11:38:43;5.40;;;5.00;;
41101;SDS011;26845;50.190;19.178;2022-08-14T11:41:09;5.65;;;4.58;;
41101;SDS011;26845;50.190;19.178;2022-08-14T11:43:38;6.85;;;4.83;;
41101;SDS011;26845;50.190;19.178;2022-08-14T11:46:09;6.10;;;5.50;;
41101;SDS011;26845;50.190;19.178;2022-08-14T11:48:52;5.30;;;4.80;;
41101;SDS011;26845;50.190;19.178;2022-08-14T11:51:20;5.55;;;5.05;;
41101;SDS011;26845;50.190;19.178;2022-08-14T11:53:55;5.90;;;5.30;;
41101;SDS011;26845;50.190;19.178;2022-08-14T11:56:34;5.40;;;5.00;;
41101;SDS011;26845;50.190;19.178;2022-08-14T11:59:02;5.33;;;4.90;;
41101;SDS011;26845;50.190;19.178;2022-08-14T12:01:29;6.12;;;4.95;;
41101;SDS011;26845;50.190;19.178;2022-08-14T12:04:06;5.65;;;5.15;;
41101;SDS011;26845;50.190;19.178;2022-08-14T12:06:48;5.45;;;4.58;;
41101;SDS011;26845;50.190;19.178;2022-08-14T12:09:26;6.10;;;5.05;;
41101;SDS011;26845;50.190;19.178;2022-08-14T12:11:55;6.05;;;5.45;;
41101;SDS011;26845;50.190;19.178;2022-08-14T12:14:24;5.40;;;4.92;;
41101;SDS011;26845;50.190;19.178;2022-08-14T12:16:58;5.30;;;4.83;;
41101;SDS011;26845;50.190;19.178;2022-08-14T12:19:25;6.05;;;4.67;;
41101;SDS011;26845;50.190;19.178;2022-08-14T12:21:52;4.35;;;4.05;;
41101;SDS011;26845;50.190;19.178;2022-08-14T12:24:17;5.05;;;4.65;;
41101;SDS011;26845;50.190;19.178;2022-08-14T12:26:55;4.92;;;4.42;;
41101;SDS011;26845;50.190;19.178;2022-08-14T12:29:21;5.75;;;4.30;;
41101;SDS011;26845;50.190;19.178;2022-08-14T12:31:55;5.03;;;4.58;;
41101;SDS011;26845;50.190;19.178;2022-08-14T12:34:30;5.65;;;4.62;;
41101;SDS011;26845;50.190;19.178;2022-08-14T12:39:30;7.08;;;5.12;;
41101;SDS011;26845;50.190;19.178;2022-08-14T12:42:01;6.55;;;5.12;;
41101;SDS011;26845;50.190;19.178;2022-08-14T12:47:04;4.95;;;4.55;;
41101;SDS011;26845;50.190;19.178;2022-08-14T12:49:36;4.45;;;4.15;;
41101;SDS011;26845;50.190;19.178;2022-08-14T12:52:03;5.37;;;4.87;;
41101;SDS011;26845;50.190;19.178;2022-08-14T12:57:17;5.15;;;4.75;;
41101;SDS011;26845;50.190;19.178;2022-08-14T12:59:35;6.17;;;5.08;;
41101;SDS011;26845;50.190;19.178;2022-08-14T13:02:02;4.78;;;4.37;;
41101;SDS011;26845;50.190;19.178;2022-08-14T13:04:28;4.05;;;3.75;;
41101;SDS011;26845;50.190;19.178;2022-08-14T13:06:55;4.62;;;4.20;;
41101;SDS011;26845;50.190;19.178;2022-08-14T13:09:33;5.03;;;4.60;;
41101;SDS011;26845;50.190;19.178;2022-08-14T13:12:00;4.80;;;4.37;;
41101;SDS011;26845;50.190;19.178;2022-08-14T13:14:31;5.33;;;4.92;;
41101;SDS011;26845;50.190;19.178;2022-08-14T13:17:00;5.33;;;4.83;;
41101;SDS011;26845;50.190;19.178;2022-08-14T13:19:29;4.87;;;4.47;;
41101;SDS011;26845;50.190;19.178;2022-08-14T13:21:56;4.97;;;4.58;;
41101;SDS011;26845;50.190;19.178;2022-08-14T13:24:23;5.20;;;4.70;;
41101;SDS011;26845;50.190;19.178;2022-08-14T13:26:55;3.58;;;3.37;;
41101;SDS011;26845;50.190;19.178;2022-08-14T13:29:24;4.30;;;3.90;;
41101;SDS011;26845;50.190;19.178;2022-08-14T13:31:53;6.90;;;4.42;;
41101;SDS011;26845;50.190;19.178;2022-08-14T13:34:25;4.40;;;4.05;;
41101;SDS011;26845;50.190;19.178;2022-08-14T13:36:52;4.35;;;4.05;;
41101;SDS011;26845;50.190;19.178;2022-08-14T13:39:22;5.30;;;4.80;;
41101;SDS011;26845;50.190;19.178;2022-08-14T13:41:49;6.03;;;5.28;;
41101;SDS011;26845;50.190;19.178;2022-08-14T13:44:16;5.42;;;4.97;;
41101;SDS011;26845;50.190;19.178;2022-08-14T13:46:47;6.90;;;4.83;;
41101;SDS011;26845;50.190;19.178;2022-08-14T13:49:13;5.50;;;5.00;;
41101;SDS011;26845;50.190;19.178;2022-08-14T13:51:45;5.08;;;4.67;;
41101;SDS011;26845;50.190;19.178;2022-08-14T13:56:49;8.23;;;4.10;;
41101;SDS011;26845;50.190;19.178;2022-08-14T13:59:20;4.62;;;4.22;;
41101;SDS011;26845;50.190;19.178;2022-08-14T14:01:49;6.72;;;4.42;;
41101;SDS011;26845;50.190;19.178;2022-08-14T14:04:15;5.05;;;4.22;;
41101;SDS011;26845;50.190;19.178;2022-08-14T14:06:43;5.20;;;4.70;;
41101;SDS011;26845;50.190;19.178;2022-08-14T14:09:13;5.12;;;4.60;;
41101;SDS011;26845;50.190;19.178;2022-08-14T14:11:42;5.03;;;4.58;;
41101;SDS011;26845;50.190;19.178;2022-08-14T14:14:09;6.17;;;4.33;;
41101;SDS011;26845;50.190;19.178;2022-08-14T14:16:41;4.70;;;4.30;;
41101;SDS011;26845;50.190;19.178;2022-08-14T14:19:11;4.58;;;4.00;;
41101;SDS011;26845;50.190;19.178;2022-08-14T14:21:41;4.45;;;4.15;;
41101;SDS011;26845;50.190;19.178;2022-08-14T14:24:09;4.20;;;3.90;;
41101;SDS011;26845;50.190;19.178;2022-08-14T14:26:35;4.20;;;3.83;;
41101;SDS011;26845;50.190;19.178;2022-08-14T14:29:05;5.37;;;4.10;;
41101;SDS011;26845;50.190;19.178;2022-08-14T14:31:32;6.08;;;4.12;;
41101;SDS011;26845;50.190;19.178;2022-08-14T14:34:01;4.08;;;3.75;;
41101;SDS011;26845;50.190;19.178;2022-08-14T14:36:32;5.12;;;3.92;;
41101;SDS011;26845;50.190;19.178;2022-08-14T14:38:58;4.47;;;3.80;;
41101;SDS011;26845;50.190;19.178;2022-08-14T14:41:28;4.30;;;3.90;;
41101;SDS011;26845;50.190;19.178;2022-08-14T14:46:25;4.15;;;3.83;;
41101;SDS011;26845;50.190;19.178;2022-08-14T14:48:54;4.28;;;3.95;;
41101;SDS011;26845;50.190;19.178;2022-08-14T14:51:21;3.00;;;2.55;;
41101;SDS011;26845;50.190;19.178;2022-08-14T14:53:49;2.58;;;2.42;;
41101;SDS011;26845;50.190;19.178;2022-08-14T14:56:19;3.20;;;2.85;;
41101;SDS011;26845;50.190;19.178;2022-08-14T14:58:45;3.12;;;2.83;;
41101;SDS011;26845;50.190;19.178;2022-08-14T15:01:14;3.20;;;3.00;;
41101;SDS011;26845;50.190;19.178;2022-08-14T15:03:43;2.90;;;2.70;;
41101;SDS011;26845;50.190;19.178;2022-08-14T15:06:09;2.80;;;2.60;;
41101;SDS011;26845;50.190;19.178;2022-08-14T15:08:37;4.90;;;3.12;;
41101;SDS011;26845;50.190;19.178;2022-08-14T15:11:03;2.92;;;2.72;;
41101;SDS011;26845;50.190;19.178;2022-08-14T15:13:29;3.15;;;2.85;;
41101;SDS011;26845;50.190;19.178;2022-08-14T15:15:55;3.42;;;3.15;;
41101;SDS011;26845;50.190;19.178;2022-08-14T15:18:25;3.37;;;3.15;;
41101;SDS011;26845;50.190;19.178;2022-08-14T15:20:50;2.77;;;2.58;;
41101;SDS011;26845;50.190;19.178;2022-08-14T15:23:25;2.95;;;2.75;;
41101;SDS011;26845;50.190;19.178;2022-08-14T15:25:53;3.20;;;3.00;;
41101;SDS011;26845;50.190;19.178;2022-08-14T15:28:20;3.10;;;2.90;;
41101;SDS011;26845;50.190;19.178;2022-08-14T15:30:47;3.25;;;3.05;;
41101;SDS011;26845;50.190;19.178;2022-08-14T15:33:15;3.15;;;2.85;;
41101;SDS011;26845;50.190;19.178;2022-08-14T15:35:43;2.95;;;2.47;;
41101;SDS011;26845;50.190;19.178;2022-08-14T15:38:10;3.42;;;2.58;;
41101;SDS011;26845;50.190;19.178;2022-08-14T15:40:40;1.85;;;1.75;;
41101;SDS011;26845;50.190;19.178;2022-08-14T15:43:11;2.10;;;2.00;;
41101;SDS011;26845;50.190;19.178;2022-08-14T15:45:40;2.58;;;2.40;;
41101;SDS011;26845;50.190;19.178;2022-08-14T15:48:06;2.40;;;2.22;;
41101;SDS011;26845;50.190;19.178;2022-08-14T15:50:33;3.55;;;2.33;;
41101;SDS011;26845;50.190;19.178;2022-08-14T15:53:00;2.37;;;2.27;;
41101;SDS011;26845;50.190;19.178;2022-08-14T15:55:25;2.40;;;2.20;;
41101;SDS011;26845;50.190;19.178;2022-08-14T15:57:51;3.40;;;2.30;;
41101;SDS011;26845;50.190;19.178;2022-08-14T16:00:17;2.30;;;2.12;;
41101;SDS011;26845;50.190;19.178;2022-08-14T16:03:02;2.50;;;2.30;;
41101;SDS011;26845;50.190;19.178;2022-08-14T16:05:29;2.75;;;2.17;;
41101;SDS011;26845;50.190;19.178;2022-08-14T16:07:55;2.55;;;2.35;;
41101;SDS011;26845;50.190;19.178;2022-08-14T16:10:21;3.42;;;2.50;;
41101;SDS011;26845;50.190;19.178;2022-08-14T16:12:52;3.10;;;2.90;;
41101;SDS011;26845;50.190;19.178;2022-08-14T16:15:16;2.70;;;2.50;;
41101;SDS011;26845;50.190;19.178;2022-08-14T16:17:45;2.70;;;2.50;;
41101;SDS011;26845;50.190;19.178;2022-08-14T16:20:13;2.87;;;2.42;;
41101;SDS011;26845;50.190;19.178;2022-08-14T16:22:41;2.83;;;2.65;;
41101;SDS011;26845;50.190;19.178;2022-08-14T16:25:07;2.98;;;2.77;;
41101;SDS011;26845;50.190;19.178;2022-08-14T16:27:33;2.67;;;2.50;;
41101;SDS011;26845;50.190;19.178;2022-08-14T16:30:08;2.87;;;2.67;;
41101;SDS011;26845;50.190;19.178;2022-08-14T16:32:36;3.27;;;2.75;;
41101;SDS011;26845;50.190;19.178;2022-08-14T16:35:13;2.90;;;2.70;;
41101;SDS011;26845;50.190;19.178;2022-08-14T16:37:38;3.20;;;2.95;;
41101;SDS011;26845;50.190;19.178;2022-08-14T16:40:11;3.17;;;2.85;;
41101;SDS011;26845;50.190;19.178;2022-08-14T16:42:39;3.83;;;3.27;;
41101;SDS011;26845;50.190;19.178;2022-08-14T16:45:07;3.10;;;2.90;;
41101;SDS011;26845;50.190;19.178;2022-08-14T16:47:35;3.15;;;2.85;;
41101;SDS011;26845;50.190;19.178;2022-08-14T16:50:03;4.97;;;3.95;;
41101;SDS011;26845;50.190;19.178;2022-08-14T16:52:35;3.42;;;3.12;;
41101;SDS011;26845;50.190;19.178;2022-08-14T16:55:04;3.10;;;2.90;;
41101;SDS011;26845;50.190;19.178;2022-08-14T16:57:48;3.42;;;3.12;;
41101;SDS011;26845;50.190;19.178;2022-08-14T17:00:26;3.50;;;3.20;;
41101;SDS011;26845;50.190;19.178;2022-08-14T17:03:02;4.55;;;3.22;;
41101;SDS011;26845;50.190;19.178;2022-08-14T17:05:31;4.08;;;3.47;;
41101;SDS011;26845;50.190;19.178;2022-08-14T17:13:25;3.95;;;3.58;;
41101;SDS011;26845;50.190;19.178;2022-08-14T17:18:46;3.98;;;3.67;;
41101;SDS011;26845;50.190;19.178;2022-08-14T17:21:22;4.10;;;3.72;;
41101;SDS011;26845;50.190;19.178;2022-08-14T17:24:05;3.80;;;3.55;;
41101;SDS011;26845;50.190;19.178;2022-08-14T17:37:23;4.05;;;3.75;;
41101;SDS011;26845;50.190;19.178;2022-08-14T17:48:05;4.97;;;4.58;;
41101;SDS011;26845;50.190;19.178;2022-08-14T17:53:12;5.40;;;4.47;;
41101;SDS011;26845;50.190;19.178;2022-08-14T17:55:47;5.25;;;4.85;;
41101;SDS011;26845;50.190;19.178;2022-08-14T17:58:18;6.00;;;5.17;;
41101;SDS011;26845;50.190;19.178;2022-08-14T18:00:49;5.42;;;4.92;;
41101;SDS011;26845;50.190;19.178;2022-08-14T18:03:23;6.30;;;5.72;;
41101;SDS011;26845;50.190;19.178;2022-08-14T18:05:51;5.80;;;5.30;;
41101;SDS011;26845;50.190;19.178;2022-08-14T18:13:21;7.17;;;6.47;;
41101;SDS011;26845;50.190;19.178;2022-08-14T18:15:53;6.37;;;5.78;;
41101;SDS011;26845;50.190;19.178;2022-08-14T18:18:22;6.53;;;6.00;;
41101;SDS011;26845;50.190;19.178;2022-08-14T18:20:48;7.22;;;6.62;;
41101;SDS011;26845;50.190;19.178;2022-08-14T18:23:17;7.33;;;5.70;;
41101;SDS011;26845;50.190;19.178;2022-08-14T18:25:49;5.78;;;5.20;;
41101;SDS011;26845;50.190;19.178;2022-08-14T18:28:17;6.22;;;5.60;;
41101;SDS011;26845;50.190;19.178;2022-08-14T18:30:47;7.10;;;6.42;;
41101;SDS011;26845;50.190;19.178;2022-08-14T18:33:20;7.30;;;6.60;;
41101;SDS011;26845;50.190;19.178;2022-08-14T18:35:48;7.58;;;6.87;;
41101;SDS011;26845;50.190;19.178;2022-08-14T18:38:24;7.28;;;6.67;;
41101;SDS011;26845;50.190;19.178;2022-08-14T18:40:53;8.50;;;6.85;;
41101;SDS011;26845;50.190;19.178;2022-08-14T18:46:09;6.83;;;6.12;;
41101;SDS011;26845;50.190;19.178;2022-08-14T18:48:40;7.30;;;5.97;;
41101;SDS011;26845;50.190;19.178;2022-08-14T18:51:09;8.00;;;6.95;;
41101;SDS011;26845;50.190;19.178;2022-08-14T18:53:54;7.90;;;6.85;;
41101;SDS011;26845;50.190;19.178;2022-08-14T18:59:31;8.43;;;7.62;;
41101;SDS011;26845;50.190;19.178;2022-08-14T19:04:59;8.73;;;7.65;;
41101;SDS011;26845;50.190;19.178;2022-08-14T19:07:25;8.25;;;7.45;;
41101;SDS011;26845;50.190;19.178;2022-08-14T19:10:05;8.70;;;7.40;;
41101;SDS011;26845;50.190;19.178;2022-08-14T19:15:26;8.98;;;8.08;;
41101;SDS011;26845;50.190;19.178;2022-08-14T19:20:52;9.60;;;8.58;;
41101;SDS011;26845;50.190;19.178;2022-08-14T19:23:29;10.50;;;9.03;;
41101;SDS011;26845;50.190;19.178;2022-08-14T19:26:18;9.35;;;8.35;;
41101;SDS011;26845;50.190;19.178;2022-08-14T19:28:48;10.23;;;8.28;;
41101;SDS011;26845;50.190;19.178;2022-08-14T19:33:57;9.13;;;8.23;;
41101;SDS011;26845;50.190;19.178;2022-08-14T19:36:40;9.28;;;8.38;;
41101;SDS011;26845;50.190;19.178;2022-08-14T19:39:12;9.30;;;8.30;;
41101;SDS011;26845;50.190;19.178;2022-08-14T19:41:39;10.32;;;9.23;;
41101;SDS011;26845;50.190;19.178;2022-08-14T19:44:15;9.95;;;8.95;;
41101;SDS011;26845;50.190;19.178;2022-08-14T19:46:48;9.75;;;8.33;;
41101;SDS011;26845;50.190;19.178;2022-08-14T19:49:32;9.40;;;8.43;;
41101;SDS011;26845;50.190;19.178;2022-08-14T19:52:10;9.88;;;8.53;;
41101;SDS011;26845;50.190;19.178;2022-08-14T19:54:53;10.32;;;8.90;;
41101;SDS011;26845;50.190;19.178;2022-08-14T19:57:24;10.23;;;9.18;;
41101;SDS011;26845;50.190;19.178;2022-08-14T19:59:59;9.90;;;8.50;;
41101;SDS011;26845;50.190;19.178;2022-08-14T20:02:33;10.88;;;9.20;;
41101;SDS011;26845;50.190;19.178;2022-08-14T20:05:08;9.93;;;8.93;;
41101;SDS011;26845;50.190;19.178;2022-08-14T20:07:37;12.28;;;10.30;;
41101;SDS011;26845;50.190;19.178;2022-08-14T20:10:09;10.90;;;9.80;;
41101;SDS011;26845;50.190;19.178;2022-08-14T20:12:55;12.60;;;10.90;;
41101;SDS011;26845;50.190;19.178;2022-08-14T20:15:28;11.05;;;9.88;;
41101;SDS011;26845;50.190;19.178;2022-08-14T20:17:59;11.68;;;9.78;;
41101;SDS011;26845;50.190;19.178;2022-08-14T20:20:27;11.22;;;9.33;;
41101;SDS011;26845;50.190;19.178;2022-08-14T20:22:53;12.10;;;10.80;;
41101;SDS011;26845;50.190;19.178;2022-08-14T20:25:20;11.63;;;10.18;;
41101;SDS011;26845;50.190;19.178;2022-08-14T20:27:48;11.90;;;10.70;;
41101;SDS011;26845;50.190;19.178;2022-08-14T20:30:18;11.47;;;10.27;;
41101;SDS011;26845;50.190;19.178;2022-08-14T20:32:55;11.65;;;10.08;;
41101;SDS011;26845;50.190;19.178;2022-08-14T20:38:21;11.35;;;10.08;;
41101;SDS011;26845;50.190;19.178;2022-08-14T20:40:55;12.28;;;9.73;;
41101;SDS011;26845;50.190;19.178;2022-08-14T20:43:32;13.15;;;9.63;;
41101;SDS011;26845;50.190;19.178;2022-08-14T20:46:23;11.85;;;10.65;;
41101;SDS011;26845;50.190;19.178;2022-08-14T20:48:59;10.98;;;9.63;;
41101;SDS011;26845;50.190;19.178;2022-08-14T20:51:50;15.68;;;11.97;;
41101;SDS011;26845;50.190;19.178;2022-08-14T20:54:21;11.60;;;10.40;;
41101;SDS011;26845;50.190;19.178;2022-08-14T20:57:04;11.15;;;9.88;;
41101;SDS011;26845;50.190;19.178;2022-08-14T20:59:40;11.30;;;9.60;;
41101;SDS011;26845;50.190;19.178;2022-08-14T21:05:02;10.08;;;8.53;;
41101;SDS011;26845;50.190;19.178;2022-08-14T21:07:33;10.72;;;8.40;;
41101;SDS011;26845;50.190;19.178;2022-08-14T21:10:10;9.75;;;8.63;;
41101;SDS011;26845;50.190;19.178;2022-08-14T21:12:42;12.78;;;9.73;;
41101;SDS011;26845;50.190;19.178;2022-08-14T21:15:08;12.93;;;10.65;;
41101;SDS011;26845;50.190;19.178;2022-08-14T21:17:37;17.52;;;14.78;;
41101;SDS011;26845;50.190;19.178;2022-08-14T21:20:05;14.05;;;12.58;;
41101;SDS011;26845;50.190;19.178;2022-08-14T21:22:32;14.30;;;12.82;;
41101;SDS011;26845;50.190;19.178;2022-08-14T21:25:00;12.98;;;11.45;;
41101;SDS011;26845;50.190;19.178;2022-08-14T21:27:30;15.10;;;10.95;;
41101;SDS011;26845;50.190;19.178;2022-08-14T21:29:57;16.20;;;11.40;;
41101;SDS011;26845;50.190;19.178;2022-08-14T21:32:26;16.48;;;11.95;;
41101;SDS011;26845;50.190;19.178;2022-08-14T21:35:00;17.52;;;12.95;;
41101;SDS011;26845;50.190;19.178;2022-08-14T21:37:30;20.62;;;14.35;;
41101;SDS011;26845;50.190;19.178;2022-08-14T21:39:56;16.25;;;13.70;;
41101;SDS011;26845;50.190;19.178;2022-08-14T21:42:29;22.65;;;15.00;;
41101;SDS011;26845;50.190;19.178;2022-08-14T21:44:55;20.12;;;16.40;;
41101;SDS011;26845;50.190;19.178;2022-08-14T21:47:23;21.82;;;16.87;;
41101;SDS011;26845;50.190;19.178;2022-08-14T21:49:50;19.07;;;16.67;;
41101;SDS011;26845;50.190;19.178;2022-08-14T21:52:17;18.15;;;16.17;;
41101;SDS011;26845;50.190;19.178;2022-08-14T21:54:51;18.42;;;15.55;;
41101;SDS011;26845;50.190;19.178;2022-08-14T21:57:17;16.20;;;14.50;;
41101;SDS011;26845;50.190;19.178;2022-08-14T21:59:47;16.75;;;13.10;;
41101;SDS011;26845;50.190;19.178;2022-08-14T22:02:14;15.05;;;13.32;;
41101;SDS011;26845;50.190;19.178;2022-08-14T22:04:39;16.57;;;13.28;;
41101;SDS011;26845;50.190;19.178;2022-08-14T22:07:07;15.10;;;12.47;;
41101;SDS011;26845;50.190;19.178;2022-08-14T22:09:37;15.18;;;13.13;;
41101;SDS011;26845;50.190;19.178;2022-08-14T22:12:04;17.12;;;13.98;;
41101;SDS011;26845;50.190;19.178;2022-08-14T22:14:33;15.15;;;13.45;;
41101;SDS011;26845;50.190;19.178;2022-08-14T22:17:04;18.90;;;15.20;;
41101;SDS011;26845;50.190;19.178;2022-08-14T22:19:34;17.17;;;13.45;;
41101;SDS011;26845;50.190;19.178;2022-08-14T22:22:01;16.37;;;13.53;;
41101;SDS011;26845;50.190;19.178;2022-08-14T22:24:28;17.45;;;14.43;;
41101;SDS011;26845;50.190;19.178;2022-08-14T22:26:55;21.42;;;15.55;;
41101;SDS011;26845;50.190;19.178;2022-08-14T22:29:24;17.30;;;14.73;;
41101;SDS011;26845;50.190;19.178;2022-08-14T22:31:50;18.92;;;14.90;;
41101;SDS011;26845;50.190;19.178;2022-08-14T22:34:17;22.00;;;17.60;;
41101;SDS011;26845;50.190;19.178;2022-08-14T22:36:43;18.52;;;15.72;;
41101;SDS011;26845;50.190;19.178;2022-08-14T22:39:20;23.40;;;18.37;;
41101;SDS011;26845;50.190;19.178;2022-08-14T22:41:49;19.55;;;15.72;;
41101;SDS011;26845;50.190;19.178;2022-08-14T22:44:17;20.92;;;16.82;;
41101;SDS011;26845;50.190;19.178;2022-08-14T22:46:47;19.92;;;17.25;;
41101;SDS011;26845;50.190;19.178;2022-08-14T22:49:18;20.10;;;16.37;;
41101;SDS011;26845;50.190;19.178;2022-08-14T22:51:47;19.32;;;16.82;;
41101;SDS011;26845;50.190;19.178;2022-08-14T22:54:18;19.45;;;15.58;;
41101;SDS011;26845;50.190;19.178;2022-08-14T22:56:46;19.15;;;15.68;;
41101;SDS011;26845;50.190;19.178;2022-08-14T22:59:12;22.42;;;15.65;;
41101;SDS011;26845;50.190;19.178;2022-08-14T23:01:40;16.32;;;14.60;;
41101;SDS011;26845;50.190;19.178;2022-08-14T23:04:13;17.62;;;14.13;;
41101;SDS011;26845;50.190;19.178;2022-08-14T23:06:42;17.12;;;13.55;;
41101;SDS011;26845;50.190;19.178;2022-08-14T23:09:10;15.80;;;13.45;;
41101;SDS011;26845;50.190;19.178;2022-08-14T23:11:36;17.27;;;13.38;;
41101;SDS011;26845;50.190;19.178;2022-08-14T23:14:06;16.40;;;14.03;;
41101;SDS011;26845;50.190;19.178;2022-08-14T23:16:35;17.40;;;15.40;;
41101;SDS011;26845;50.190;19.178;2022-08-14T23:19:04;19.17;;;15.28;;
41101;SDS011;26845;50.190;19.178;2022-08-14T23:21:33;17.92;;;15.83;;
41101;SDS011;26845;50.190;19.178;2022-08-14T23:24:02;21.40;;;15.25;;
41101;SDS011;26845;50.190;19.178;2022-08-14T23:26:34;22.70;;;16.55;;
41101;SDS011;26845;50.190;19.178;2022-08-14T23:29:01;18.95;;;14.98;;
41101;SDS011;26845;50.190;19.178;2022-08-14T23:31:28;18.50;;;15.28;;
41101;SDS011;26845;50.190;19.178;2022-08-14T23:33:57;16.17;;;14.27;;
41101;SDS011;26845;50.190;19.178;2022-08-14T23:36:25;19.73;;;16.02;;
41101;SDS011;26845;50.190;19.178;2022-08-14T23:38:53;25.00;;;17.05;;
41101;SDS011;26845;50.190;19.178;2022-08-14T23:41:25;21.23;;;16.77;;
41101;SDS011;26845;50.190;19.178;2022-08-14T23:43:51;24.50;;;17.35;;
41101;SDS011;26845;50.190;19.178;2022-08-14T23:46:22;22.80;;;16.50;;
41101;SDS011;26845;50.190;19.178;2022-08-14T23:48:48;17.62;;;14.43;;
41101;SDS011;26845;50.190;19.178;2022-08-14T23:51:15;19.48;;;14.43;;
41101;SDS011;26845;50.190;19.178;2022-08-14T23:53:43;20.00;;;15.72;;
41101;SDS011;26845;50.190;19.178;2022-08-14T23:56:15;19.30;;;15.40;;
41101;SDS011;26845;50.190;19.178;2022-08-14T23:58:48;22.62;;;16.00;;
